Terminal Aerodrome Forecast
Issued by NWS Boston, MA

Home | Current Version | Previous Version | Text Only | Print | Product List | Glossary On
Versions: 1 2 3 4 5 6 7 8 9 10 11 12 13 14 15 16 17 18 19 20
000
FTUS41 KBOX 061511 AAA
TAFORH
TAF AMD
KORH 061511Z 0615/0712 06009KT P6SM BKN015
     FM061800 07009KT P6SM BKN025
     FM062200 09012KT P6SM VCSH OVC015
     FM070100 08007KT 5SM -RA BKN015
     FM070300 07007KT 3SM -RA BR OVC008=

USA.gov is the U.S. government's official web portal to all federal, state and local government web resources and services.